Time;durP1;ratioP1;P1;durP2;ratioP2;P2;SDS_P1;SDS_P2;PMS_P1;PMS_P2;Temp;Humidity;BMP_temperature;BMP_pressure;BME280_temperature;BME280_humidity;BME280_pressure;Samples;Min_cycle;Max_cycle;Signal;HPM_P1;HPM_P2
2021/10/28 00:14:34;;;;;;;1051.30;956.00;;;7.70;99.90;;;;;;6136358;23;20402;-85
2021/10/28 00:17:15;;;;;;;1058.93;963.27;;;7.80;99.90;;;;;;6136339;23;20435;-86
2021/10/28 00:19:51;;;;;;;1065.70;970.53;;;7.70;99.90;;;;;;6126015;23;20501;-83
2021/10/28 00:22:26;;;;;;;1060.77;964.97;;;7.70;99.90;;;;;;6136188;23;20407;-85
2021/10/28 00:25:09;;;;;;;1069.40;974.23;;;7.70;99.90;;;;;;6136434;23;20719;-85
2021/10/28 00:27:43;;;;;;;1065.10;969.30;;;7.80;99.90;;;;;;6136068;23;20801;-85
2021/10/28 00:30:29;;;;;;;1065.60;968.23;;;7.60;99.90;;;;;;6126473;23;20411;-84
2021/10/28 00:33:09;;;;;;;1060.23;963.93;;;7.60;99.90;;;;;;6125456;23;20409;-86
2021/10/28 00:35:51;;;;;;;1060.10;963.50;;;7.60;99.90;;;;;;6136308;23;20485;-85
2021/10/28 00:38:25;;;;;;;1055.07;958.67;;;7.50;99.90;;;;;;6126419;23;20406;-85
2021/10/28 00:41:02;;;;;;;1057.50;961.30;;;7.60;99.90;;;;;;6135889;23;20438;-85
2021/10/28 00:43:34;;;;;;;1057.20;961.30;;;7.40;99.90;;;;;;6136457;23;20415;-85
2021/10/28 00:46:24;;;;;;;1057.60;961.30;;;7.50;99.90;;;;;;6126471;23;20403;-84
2021/10/28 00:48:53;;;;;;;1064.27;967.83;;;7.60;99.90;;;;;;6134343;23;20490;-84
2021/10/28 00:51:42;;;;;;;1063.77;967.87;;;7.40;99.90;;;;;;6126130;23;20426;-84
2021/10/28 00:54:21;;;;;;;1062.50;966.37;;;7.50;99.90;;;;;;6136479;23;20411;-83
2021/10/28 00:56:55;;;;;;;1072.47;975.10;;;7.30;99.90;;;;;;6136337;23;20505;-84
2021/10/28 00:59:31;;;;;;;1060.97;963.50;;;7.30;99.90;;;;;;6135572;23;20986;-84
2021/10/28 01:02:23;;;;;;;1066.23;968.87;;;7.20;99.90;;;;;;6136166;23;20489;-82
2021/10/28 01:04:57;;;;;;;1063.97;967.27;;;7.20;99.90;;;;;;6136219;23;20423;-84
2021/10/28 01:07:38;;;;;;;1068.00;970.50;;;7.30;99.90;;;;;;6135222;23;20425;-83
2021/10/28 01:10:20;;;;;;;1066.40;967.90;;;7.30;99.90;;;;;;6135978;23;20418;-84
2021/10/28 01:13:13;;;;;;;1071.23;973.13;;;7.30;99.90;;;;;;6126520;23;20399;-84
2021/10/28 01:15:41;;;;;;;1065.20;966.73;;;7.30;99.90;;;;;;6121369;23;20414;-84
2021/10/28 01:18:14;;;;;;;1057.40;960.20;;;7.30;99.90;;;;;;6134416;23;20466;-83
2021/10/28 01:21:00;;;;;;;1065.83;968.20;;;7.30;99.90;;;;;;6126208;23;20438;-82
2021/10/28 01:23:28;;;;;;;1061.27;963.70;;;7.20;99.90;;;;;;6126211;23;20417;-82
2021/10/28 01:25:57;;;;;;;1058.90;960.30;;;7.20;99.90;;;;;;6126168;23;20534;-84
2021/10/28 01:28:33;;;;;;;1053.70;955.67;;;7.10;99.90;;;;;;6135851;23;20415;-83
2021/10/28 01:31:02;;;;;;;1072.93;973.97;;;7.20;99.90;;;;;;6135711;23;20399;-85
2021/10/28 01:33:31;;;;;;;1070.43;971.90;;;7.40;99.90;;;;;;6134919;23;20407;-83
2021/10/28 01:36:06;;;;;;;1071.90;973.03;;;7.30;99.90;;;;;;6136077;23;20458;-82
2021/10/28 01:38:38;;;;;;;1066.07;966.77;;;7.30;99.90;;;;;;6126110;23;20398;-84
2021/10/28 01:41:06;;;;;;;1058.23;959.67;;;7.20;99.90;;;;;;6135676;23;20480;-84
2021/10/28 01:43:34;;;;;;;1062.27;963.73;;;7.30;99.90;;;;;;6135375;23;20786;-84
2021/10/28 01:46:07;;;;;;;1059.17;960.37;;;7.00;99.90;;;;;;6135588;23;20915;-83
2021/10/28 01:48:45;;;;;;;1064.20;964.80;;;7.10;99.90;;;;;;6134181;23;20418;-83
2021/10/28 01:51:33;;;;;;;1060.03;960.37;;;7.10;99.90;;;;;;6135911;23;20465;-84
2021/10/28 01:54:02;;;;;;;1063.30;964.20;;;7.10;99.90;;;;;;6135870;23;20413;-82
2021/10/28 01:56:34;;;;;;;1056.50;957.63;;;7.00;99.90;;;;;;6126141;23;20462;-83
2021/10/28 01:59:01;;;;;;;1059.67;960.70;;;6.90;99.90;;;;;;6126139;23;20403;-84
2021/10/28 02:01:30;;;;;;;1070.40;971.67;;;6.90;99.90;;;;;;6136044;23;20528;-83
2021/10/28 02:04:00;;;;;;;1063.60;965.00;;;7.00;99.90;;;;;;6124306;23;20418;-84
2021/10/28 02:06:43;;;;;;;1064.00;964.63;;;7.00;99.90;;;;;;6135420;23;20469;-83
2021/10/28 02:09:17;;;;;;;1066.17;964.93;;;6.90;99.90;;;;;;6125808;23;20418;-85
2021/10/28 02:11:47;;;;;;;1064.03;966.10;;;6.80;99.90;;;;;;6126098;23;20797;-85
2021/10/28 02:14:16;;;;;;;1072.20;972.90;;;6.70;99.90;;;;;;6135128;23;20970;-84
2021/10/28 02:16:51;;;;;;;1072.40;972.63;;;6.70;99.90;;;;;;6135250;23;20465;-84
2021/10/28 02:19:27;;;;;;;1075.57;975.40;;;6.60;99.90;;;;;;6125746;23;20406;-84
2021/10/28 02:22:07;;;;;;;1067.83;969.70;;;6.50;99.90;;;;;;6137700;23;20430;-84
2021/10/28 02:24:37;;;;;;;1060.47;962.20;;;6.60;99.90;;;;;;6137603;23;20434;-83
2021/10/28 02:27:09;;;;;;;1062.47;962.80;;;6.70;99.90;;;;;;6137585;23;20407;-83
2021/10/28 02:29:39;;;;;;;1065.80;966.30;;;6.60;99.90;;;;;;6127292;23;20454;-83
2021/10/28 02:32:09;;;;;;;1065.53;964.67;;;6.60;99.90;;;;;;6127419;23;20456;-84
2021/10/28 02:34:39;;;;;;;1068.03;968.80;;;6.60;99.90;;;;;;6126626;23;20430;-86
2021/10/28 02:37:10;;;;;;;1068.67;970.23;;;6.60;99.90;;;;;;6137544;23;20403;-84
2021/10/28 02:39:51;;;;;;;1069.43;969.57;;;6.60;99.90;;;;;;6137468;23;20426;-82
2021/10/28 02:42:27;;;;;;;1080.67;979.37;;;6.60;99.90;;;;;;6137281;23;20761;-84
2021/10/28 02:44:54;;;;;;;1071.50;970.57;;;6.70;99.90;;;;;;6137089;23;20402;-84
2021/10/28 02:47:21;;;;;;;1074.53;972.27;;;6.60;99.90;;;;;;6126444;23;20486;-84
2021/10/28 02:49:55;;;;;;;1080.93;975.63;;;6.70;99.90;;;;;;6127189;23;20406;-85
2021/10/28 02:52:24;;;;;;;1094.20;985.47;;;7.10;99.90;;;;;;6127482;23;20407;-83
2021/10/28 02:54:52;;;;;;;1102.03;985.40;;;7.40;99.90;;;;;;6137191;23;20413;-84
2021/10/28 02:57:22;;;;;;;1114.47;992.30;;;7.60;99.90;;;;;;6136900;23;20447;-83
2021/10/28 02:59:53;;;;;;;1104.60;990.70;;;7.90;99.90;;;;;;6136736;23;20501;-84
2021/10/28 03:02:22;;;;;;;1114.87;999.90;;;8.00;99.90;;;;;;6126221;23;20406;-83
2021/10/28 03:04:51;;;;;;;1101.77;984.27;;;8.00;99.90;;;;;;6137299;23;20446;-83
2021/10/28 03:07:25;;;;;;;1098.40;978.50;;;8.20;99.90;;;;;;6136845;23;20407;-82
2021/10/28 03:09:52;;;;;;;1084.43;968.50;;;8.30;99.90;;;;;;6136950;23;20411;-84
2021/10/28 03:12:24;;;;;;;1087.43;972.00;;;8.20;99.90;;;;;;6126970;23;20403;-83
2021/10/28 03:14:56;;;;;;;1087.63;967.93;;;8.30;99.90;;;;;;6136604;23;20497;-84
2021/10/28 03:17:32;;;;;;;1087.77;967.03;;;8.40;99.90;;;;;;6125674;23;20930;-81
2021/10/28 03:25:57;;;;;;;1099.63;954.40;;;8.40;99.90;;;;;;6136804;23;20526;-81
2021/10/28 03:28:27;;;;;;;1081.77;961.03;;;8.50;99.90;;;;;;6136534;23;20888;-83
2021/10/28 03:31:07;;;;;;;1097.17;946.33;;;8.60;99.90;;;;;;6126627;23;20466;-84
2021/10/28 03:33:57;;;;;;;1084.73;921.20;;;8.50;99.90;;;;;;6135442;23;20419;-84
2021/10/28 03:36:43;;;;;;;1124.17;915.43;;;8.60;99.90;;;;;;6127077;23;20403;-84
2021/10/28 03:39:46;;;;;;;1143.30;919.37;;;8.70;99.90;;;;;;6126780;23;20503;-84
2021/10/28 04:06:29;;;;;;;1067.67;896.33;;;8.90;99.90;;;;;;6066172;23;20420;-83
2021/10/28 04:30:25;;;;;;;1160.00;901.10;;;9.10;99.90;;;;;;6136149;23;20880;-83
2021/10/28 04:33:00;;;;;;;1132.07;920.23;;;9.00;99.90;;;;;;6134767;23;20930;-83
2021/10/28 04:35:42;;;;;;;1104.37;894.00;;;9.10;99.90;;;;;;6136077;23;20914;-83
2021/10/28 04:41:44;;;;;;;1127.23;899.70;;;9.10;99.90;;;;;;6005744;23;20457;-83
2021/10/28 04:45:04;;;;;;;;;;;;;;;;;;;;;
2021/10/28 04:47:57;;;;;;;1084.47;914.33;;;9.10;99.90;;;;;;5988447;24;20424;-83
2021/10/28 04:50:36;;;;;;;1072.17;894.20;;;9.20;99.90;;;;;;6126067;23;20407;-83
2021/10/28 04:56:38;;;;;;;1080.63;901.07;;;9.20;99.90;;;;;;6098991;23;20489;-88
2021/10/28 05:06:34;;;;;;;1070.50;908.10;;;9.10;99.90;;;;;;6124107;23;20403;-84
2021/10/28 05:12:54;;;;;;;1070.10;916.67;;;9.20;99.90;;;;;;6111322;23;20470;-85
2021/10/28 05:15:36;;;;;;;1034.03;911.67;;;9.20;99.90;;;;;;6045705;23;20425;-85
2021/10/28 05:22:37;;;;;;;1016.73;904.70;;;9.30;99.90;;;;;;6123515;23;20805;-84
2021/10/28 05:36:32;;;;;;;;;;;;;;;;;;;;;
2021/10/28 05:40:02;;;;;;;;;;;;;;;;;;;;;
2021/10/28 05:42:48;;;;;;;1011.13;900.90;;;9.20;99.90;;;;;;5827212;24;20489;-86
2021/10/28 05:45:30;;;;;;;1011.17;902.47;;;9.10;99.90;;;;;;5919300;23;20911;-86
2021/10/28 05:55:29;;;;;;;1027.80;918.23;;;9.20;99.90;;;;;;6020890;23;20425;-85
2021/10/28 05:57:56;;;;;;;1016.13;908.40;;;9.10;99.90;;;;;;6126478;23;20502;-86
2021/10/28 06:00:36;;;;;;;1026.20;917.53;;;9.10;99.90;;;;;;6137299;23;20435;-84
2021/10/28 06:03:05;;;;;;;1011.23;903.80;;;9.10;99.90;;;;;;6136377;23;20518;-84
2021/10/28 06:05:38;;;;;;;1017.97;911.43;;;9.20;99.90;;;;;;6137804;23;20411;-85
2021/10/28 06:08:09;;;;;;;1025.93;916.50;;;9.10;99.90;;;;;;6137581;23;20415;-85
2021/10/28 07:11:50;;;;;;;;;;;;;;;;;;;;;
2021/10/28 07:31:53;;;;;;;;;;;;;;;;;;;;;
2021/10/28 08:36:28;;;;;;;865.40;782.00;;;10.20;99.90;;;;;;5879547;24;20451;-86
2021/10/28 08:39:35;;;;;;;;;;;;;;;;;;;;;
2021/10/28 09:28:06;;;;;;;598.37;566.97;;;11.90;99.90;;;;;;6017576;23;20950;-85
2021/10/28 09:31:09;;;;;;;389.07;372.77;;;12.10;99.90;;;;;;6006718;23;20486;-86
2021/10/28 09:33:49;;;;;;;279.47;266.97;;;12.40;99.90;;;;;;6016206;23;20854;-84
2021/10/28 09:46:18;;;;;;;24.07;20.67;;;13.80;96.20;;;;;;6106675;23;20398;-86
2021/10/28 12:47:00;;;;;;;15.50;11.33;;;20.80;28.20;;;;;;6094523;23;20458;-90
2021/10/28 20:06:01;;;;;;;;;;;;;;;;;;;;;
2021/10/28 21:10:23;;;;;;;813.40;759.40;;;8.20;99.90;;;;;;5745577;24;20418;-86
2021/10/28 21:19:58;;;;;;;844.80;787.20;;;8.00;99.90;;;;;;5864950;24;20793;-85
2021/10/28 21:23:01;;;;;;;858.97;799.80;;;8.20;99.90;;;;;;5879143;24;20429;-85
2021/10/28 21:42:10;;;;;;;866.33;799.97;;;7.80;99.90;;;;;;6115949;23;20414;-87
2021/10/28 21:48:32;;;;;;;865.87;801.07;;;8.00;99.90;;;;;;6027010;23;20416;-86
2021/10/28 21:52:07;;;;;;;;;;;;;;;;;;;;;
2021/10/28 21:55:23;;;;;;;883.03;817.70;;;7.80;99.90;;;;;;6007458;23;20950;-88
2021/10/28 22:01:45;;;;;;;879.80;814.30;;;7.80;99.90;;;;;;6136844;23;20430;-87
2021/10/28 22:07:09;;;;;;;893.53;827.20;;;8.00;99.90;;;;;;6156060;23;20399;-91
2021/10/28 22:27:16;;;;;;;906.80;836.57;;;7.60;99.90;;;;;;6138014;23;20912;-87
2021/10/28 22:29:58;;;;;;;910.67;840.17;;;7.70;99.90;;;;;;6165345;23;20422;-88
2021/10/28 22:32:41;;;;;;;904.10;834.00;;;7.70;99.90;;;;;;6164943;23;20772;-85
2021/10/28 22:35:52;;;;;;;893.63;824.47;;;7.80;99.90;;;;;;6165216;23;20410;-87
2021/10/28 22:44:52;;;;;;;909.60;838.63;;;7.80;99.90;;;;;;6136382;23;20417;-87
2021/10/28 22:51:05;;;;;;;907.80;838.10;;;7.90;99.90;;;;;;6104049;23;20497;-87
2021/10/28 22:54:00;;;;;;;911.50;842.80;;;7.90;99.90;;;;;;6166813;23;20441;-85
2021/10/28 23:15:15;;;;;;;909.10;837.03;;;7.70;99.90;;;;;;6113264;23;20449;-85
2021/10/28 23:20:48;;;;;;;919.50;846.50;;;7.80;99.90;;;;;;6166394;23;20396;-84
2021/10/28 23:23:24;;;;;;;920.57;846.87;;;7.90;99.90;;;;;;6157006;23;20403;-83
2021/10/28 23:28:43;;;;;;;934.60;860.63;;;7.80;99.90;;;;;;6154144;23;20425;-86
2021/10/28 23:31:20;;;;;;;931.40;858.83;;;7.90;99.90;;;;;;6165972;23;20509;-86
2021/10/28 23:33:52;;;;;;;916.93;844.63;;;7.90;99.90;;;;;;6162662;23;20504;-86
2021/10/28 23:39:11;;;;;;;923.13;849.70;;;7.90;99.90;;;;;;6156061;23;20425;-86
2021/10/28 23:41:46;;;;;;;929.50;855.80;;;7.80;99.90;;;;;;6166469;23;20449;-86
2021/10/28 23:44:33;;;;;;;933.53;858.00;;;7.80;99.90;;;;;;6166571;23;20409;-87
2021/10/28 23:50:10;;;;;;;913.63;839.33;;;7.90;99.90;;;;;;6165200;23;20420;-86
2021/10/28 23:52:40;;;;;;;937.60;861.07;;;7.90;99.90;;;;;;6156187;23;20441;-86
2021/10/28 23:55:25;;;;;;;943.57;868.30;;;8.00;99.90;;;;;;6166338;23;20414;-87
